Captain Ed — WDF6338 — position and weather

sailwx.info

Track history (hours):
 
Tides and Currents Weather Stations Pressure Air Temp Water Temp Dewpoint Dewpoint Depression Visibility Wind Speed Wind Dir Waves Ship Positions

Captain Ed

Owner: Norfolk Dredging Company, Chesapeake, VA. More information available from US FCC via Universal Licensing System and Coast Guard Vessel Documentation Center.

Last reported at 2015-Jul-02 09:07 UTC. Time now 2015-Jul-04 13:36 UTC.
Position N 35°03' W 076°35'.

Length 22 m; draft 3 m.

Type: Tug. MMSI: 367473210.

Date/timePositionNaut miles runAvg speedWind from/ knotsBaromVisibWave heightAir tempDewpointWater temp
2015-Jul-02 09:07N 35°03' W 076°35'7 3.8
2015-Jul-02 07:21N 34°59' W 076°41'3 3.4
2015-Jul-02 06:33N 34°57' W 076°40'3 3.4
2015-Jul-02 05:34N 34°53' W 076°41'4 4.4
2015-Jul-02 04:33N 34°49' W 076°41'4 3.9
2015-Jul-02 03:34N 34°45' W 076°40'2 2.5
2015-Jul-02 02:34N 34°43' W 076°42'2 2.2
2015-Jul-02 01:34N 34°43' W 076°44'2 2.2
2015-Jul-02 00:33N 34°43' W 076°47'2 2.4
2015-Jul-01 23:34N 34°43' W 076°50'4 3.0
2015-Jul-01 22:21N 34°43' W 076°54'0 0.4
2015-Jul-01 21:31N 34°43' W 076°55'6 3.0
2015-Jul-01 19:33N 34°41' W 077°01'18 0.8
2015-Jun-30 21:26N 34°33' W 077°21'0 0.0
2015-Jun-30 20:28N 34°33' W 077°21'0 0.0
2015-Jun-30 19:33N 34°33' W 077°21'0 0.0
2015-Jun-30 18:29N 34°33' W 077°21'0 0.0
2015-Jun-30 17:07N 34°33' W 077°21'0 0.0
2015-Jun-30 16:32N 34°33' W 077°21'0 0.0
2015-Jun-29 08:29N 34°33' W 077°21'0 0.0
2015-Jun-29 07:29N 34°33' W 077°21'0 0.0
2015-Jun-29 06:33N 34°33' W 077°21'0 0.0
2015-Jun-29 05:33N 34°33' W 077°21'25 1.6
2015-Jun-28 14:33N 34°43' W 076°54'7 6.8
2015-Jun-28 13:33N 34°43' W 076°45'5 4.7
2015-Jun-28 12:33N 34°46' W 076°41'7 6.7
2015-Jun-28 11:33N 34°53' W 076°41'6 6.0
2015-Jun-28 10:33N 34°59' W 076°41'  
Track history (hours):
 
Tides and Currents Weather Stations Pressure Air Temp Water Temp Dewpoint Dewpoint Depression Visibility Wind Speed Wind Dir Waves Ship Positions

Captain Ed

Owner: Norfolk Dredging Company, Chesapeake, VA. More information available from US FCC via Universal Licensing System and Coast Guard Vessel Documentation Center.

Last reported at 2015-Jul-02 09:07 UTC. Time now 2015-Jul-04 13:36 UTC.
Position N 35°03' W 076°35'.

Length 22 m; draft 3 m.

Type: Tug. MMSI: 367473210.

Date/timePositionNaut miles runAvg speedWind from/ knotsBaromVisibWave heightAir tempDewpointWater temp
2015-Jul-02 09:07N 35°03' W 076°35'7 3.8
2015-Jul-02 07:21N 34°59' W 076°41'3 3.4
2015-Jul-02 06:33N 34°57' W 076°40'3 3.4
2015-Jul-02 05:34N 34°53' W 076°41'4 4.4
2015-Jul-02 04:33N 34°49' W 076°41'4 3.9
2015-Jul-02 03:34N 34°45' W 076°40'2 2.5
2015-Jul-02 02:34N 34°43' W 076°42'2 2.2
2015-Jul-02 01:34N 34°43' W 076°44'2 2.2
2015-Jul-02 00:33N 34°43' W 076°47'2 2.4
2015-Jul-01 23:34N 34°43' W 076°50'4 3.0
2015-Jul-01 22:21N 34°43' W 076°54'0 0.4
2015-Jul-01 21:31N 34°43' W 076°55'6 3.0
2015-Jul-01 19:33N 34°41' W 077°01'18 0.8
2015-Jun-30 21:26N 34°33' W 077°21'0 0.0
2015-Jun-30 20:28N 34°33' W 077°21'0 0.0
2015-Jun-30 19:33N 34°33' W 077°21'0 0.0
2015-Jun-30 18:29N 34°33' W 077°21'0 0.0
2015-Jun-30 17:07N 34°33' W 077°21'0 0.0
2015-Jun-30 16:32N 34°33' W 077°21'0 0.0
2015-Jun-29 08:29N 34°33' W 077°21'0 0.0
2015-Jun-29 07:29N 34°33' W 077°21'0 0.0
2015-Jun-29 06:33N 34°33' W 077°21'0 0.0
2015-Jun-29 05:33N 34°33' W 077°21'25 1.6
2015-Jun-28 14:33N 34°43' W 076°54'7 6.8
2015-Jun-28 13:33N 34°43' W 076°45'5 4.7
2015-Jun-28 12:33N 34°46' W 076°41'7 6.7
2015-Jun-28 11:33N 34°53' W 076°41'6 6.0
2015-Jun-28 10:33N 34°59' W 076°41'  

Dump ship's entire track history